Time;durP1;ratioP1;P1;durP2;ratioP2;P2;SDS_P1;SDS_P2;PMS_P1;PMS_P2;Temp;Humidity;BMP_temperature;BMP_pressure;BME280_temperature;BME280_humidity;BME280_pressure;Samples;Min_cycle;Max_cycle;Signal;HPM_P1;HPM_P2
2021/08/03 00:00:16;;;;;;;2.80;1.77;;;;;;;17.44;64.74;101276.09;5969117;29;20624;-53
2021/08/03 00:03:39;;;;;;;2.57;1.60;;;;;;;17.42;64.84;101277.91;5970466;29;20239;-47
2021/08/03 00:07:00;;;;;;;1.25;1.15;;;;;;;17.49;64.45;101275.97;5971663;29;20239;-48
2021/08/03 00:10:23;;;;;;;1.33;1.23;;;;;;;17.58;64.45;101282.69;5973872;29;20240;-52
2021/08/03 00:13:46;;;;;;;2.58;1.27;;;;;;;17.61;64.37;101272.94;5963924;29;20237;-50
2021/08/03 00:17:07;;;;;;;2.43;1.40;;;;;;;17.41;64.97;101272.69;5973314;29;20232;-50
2021/08/03 00:20:28;;;;;;;3.17;1.77;;;;;;;17.62;64.09;101279.06;5973451;29;20248;-50
2021/08/03 00:23:49;;;;;;;2.30;1.70;;;;;;;17.59;63.70;101281.81;5968363;29;20244;-47
2021/08/03 00:27:10;;;;;;;1.80;1.20;;;;;;;17.65;63.46;101284.25;5973909;29;20228;-48
2021/08/03 00:30:32;;;;;;;4.73;1.57;;;;;;;17.63;63.81;101278.16;5967194;29;20924;-49
2021/08/03 00:33:56;;;;;;;2.33;1.50;;;;;;;17.43;64.66;101291.94;5964405;29;20239;-49
2021/08/03 00:37:17;;;;;;;4.53;1.57;;;;;;;17.45;64.46;101282.25;5971365;29;20232;-50
2021/08/03 00:40:55;;;;;;;4.63;1.50;;;;;;;17.73;63.53;101282.22;5967095;29;20285;-48
2021/08/03 00:44:17;;;;;;;4.07;1.93;;;;;;;16.59;67.82;101293.38;5972222;29;20232;-50
2021/08/03 00:47:40;;;;;;;3.27;2.10;;;;;;;16.10;69.75;101286.75;5970629;29;20240;-48
2021/08/03 00:51:04;;;;;;;3.23;1.70;;;;;;;16.31;69.34;101288.84;5970771;29;20240;-48
2021/08/03 00:54:27;;;;;;;3.50;2.30;;;;;;;16.54;68.43;101293.50;5967966;29;20235;-51
2021/08/03 00:57:50;;;;;;;2.13;1.87;;;;;;;16.70;67.53;101286.06;5972322;29;20337;-51
2021/08/03 01:01:12;;;;;;;4.50;2.30;;;;;;;16.81;67.16;101296.31;5971773;29;20235;-49
2021/08/03 01:04:37;;;;;;;3.67;1.93;;;;;;;16.94;66.43;101294.22;5967210;29;20244;-53
2021/08/03 01:08:11;;;;;;;3.67;2.37;;;;;;;17.22;65.38;101282.91;5970606;29;20240;-50
2021/08/03 01:11:41;;;;;;;5.03;2.70;;;;;;;17.16;65.92;101288.34;5985842;29;20239;-46
2021/08/03 01:15:09;;;;;;;3.10;1.93;;;;;;;16.92;66.64;101283.75;5971719;29;20237;-46
2021/08/03 01:18:36;;;;;;;3.23;2.53;;;;;;;16.85;66.71;101287.44;5967544;29;20231;-48
2021/08/03 01:22:08;;;;;;;3.57;2.03;;;;;;;17.03;66.26;101296.59;5971222;29;20227;-47
2021/08/03 01:25:42;;;;;;;3.43;2.10;;;;;;;16.70;67.79;101293.94;5970219;29;20472;-48
2021/08/03 01:29:09;;;;;;;4.33;2.33;;;;;;;16.97;66.70;101302.03;5968207;29;20236;-47
2021/08/03 01:32:35;;;;;;;4.20;2.57;;;;;;;16.98;66.24;101298.47;5981033;29;20236;-50
2021/08/03 01:35:58;;;;;;;3.67;2.43;;;;;;;16.90;66.66;101295.22;5967664;29;20228;-50
2021/08/03 01:39:25;;;;;;;3.30;2.33;;;;;;;16.36;68.79;101293.13;5963020;29;20251;-50
2021/08/03 01:42:46;;;;;;;3.43;2.50;;;;;;;17.07;66.37;101292.97;6370830;23;20911;-48
2021/08/03 01:46:12;;;;;;;3.53;2.93;;;;;;;17.23;65.46;101297.78;5973739;29;20635;-50
2021/08/03 01:49:38;;;;;;;2.73;2.53;;;;;;;16.74;66.76;101298.22;5983383;29;20232;-48
2021/08/03 01:53:02;;;;;;;3.67;3.30;;;;;;;16.65;67.46;101301.13;5981843;29;20574;-49
2021/08/03 01:56:26;;;;;;;4.00;3.57;;;;;;;16.14;69.35;101301.53;5981209;29;20236;-49
2021/08/03 01:59:52;;;;;;;4.70;3.30;;;;;;;15.93;70.26;101301.13;5972447;29;20235;-52
2021/08/03 02:03:15;;;;;;;3.00;2.77;;;;;;;15.99;70.33;101304.53;5987794;29;20244;-48
2021/08/03 02:06:37;;;;;;;2.90;2.67;;;;;;;16.04;69.70;101300.03;5973444;29;20240;-47
2021/08/03 02:10:04;;;;;;;4.20;3.20;;;;;;;15.91;70.52;101302.09;5989061;29;20561;-45
2021/08/03 02:13:28;;;;;;;3.55;3.20;;;;;;;16.36;68.79;101301.00;5985755;29;20236;-49
2021/08/03 02:16:51;;;;;;;3.07;2.27;;;;;;;16.46;68.11;101300.75;5976114;29;20244;-50
2021/08/03 02:20:20;;;;;;;3.30;2.70;;;;;;;16.77;67.10;101305.19;5979008;29;20353;-53
2021/08/03 02:23:48;;;;;;;3.07;2.60;;;;;;;16.58;67.63;101303.94;5979474;29;20240;-49
2021/08/03 02:27:09;;;;;;;7.00;2.97;;;;;;;16.93;66.32;101309.16;5989025;29;20268;-51
2021/08/03 02:30:32;;;;;;;4.60;3.03;;;;;;;16.62;67.38;101309.06;5978322;29;20323;-46
2021/08/03 02:33:59;;;;;;;5.60;2.43;;;;;;;16.61;67.58;101309.13;5972756;29;20244;-48
2021/08/03 02:37:31;;;;;;;5.03;3.43;;;;;;;16.69;67.32;101317.66;5984973;29;20240;-50
2021/08/03 02:40:54;;;;;;;3.37;3.00;;;;;;;16.60;67.47;101313.50;5975852;29;20267;-46
2021/08/03 02:44:22;;;;;;;6.10;3.33;;;;;;;16.15;69.15;101313.78;5986578;29;20248;-48
2021/08/03 02:47:48;;;;;;;4.30;2.90;;;;;;;16.26;68.54;101308.25;5979398;29;20232;-49
2021/08/03 02:51:11;;;;;;;3.20;3.00;;;;;;;16.66;67.47;101317.75;5972775;29;20514;-50
2021/08/03 02:54:37;;;;;;;4.33;2.80;;;;;;;16.91;66.08;101310.09;5973583;29;20236;-48
2021/08/03 02:58:05;;;;;;;3.43;2.77;;;;;;;16.89;66.31;101304.88;5968204;29;20255;-49
2021/08/03 03:01:29;;;;;;;3.27;2.97;;;;;;;16.76;67.09;101306.06;5979539;29;20247;-46
2021/08/03 03:04:57;;;;;;;3.60;2.53;;;;;;;17.01;66.00;101306.28;5983606;29;20621;-47
2021/08/03 03:08:24;;;;;;;2.83;2.30;;;;;;;17.17;66.34;101313.75;5964466;29;20250;-50
2021/08/03 03:11:49;;;;;;;15.67;14.33;;;;;;;16.68;67.52;101321.22;5982226;29;20237;-47
2021/08/03 03:15:15;;;;;;;5.70;3.50;;;;;;;16.50;67.61;101312.03;5976534;29;20520;-51
2021/08/03 03:18:38;;;;;;;5.23;2.60;;;;;;;16.57;66.97;101308.31;5983998;29;20373;-46
2021/08/03 03:22:02;;;;;;;3.00;2.80;;;;;;;16.85;66.02;101310.28;5970840;29;20236;-49
2021/08/03 03:25:26;;;;;;;3.43;2.93;;;;;;;16.61;66.64;101307.34;5986124;29;20276;-46
2021/08/03 03:28:51;;;;;;;3.17;2.90;;;;;;;16.53;66.64;101307.53;5984230;29;20330;-48
2021/08/03 03:32:13;;;;;;;5.80;2.90;;;;;;;16.71;66.44;101303.59;5983458;29;20264;-50
2021/08/03 03:35:36;;;;;;;5.33;3.03;;;;;;;16.75;66.35;101307.00;5981473;29;20228;-46
2021/08/03 03:39:00;;;;;;;3.70;2.57;;;;;;;16.63;66.82;101302.03;5975280;29;21396;-52
2021/08/03 03:42:30;;;;;;;2.83;2.60;;;;;;;17.03;65.14;101306.25;5985509;29;20267;-47
2021/08/03 03:45:56;;;;;;;2.50;2.30;;;;;;;16.79;66.27;101299.88;5975630;29;20434;-46
2021/08/03 03:49:24;;;;;;;4.77;2.77;;;;;;;16.92;66.03;101303.91;5972142;29;20236;-50
2021/08/03 03:52:53;;;;;;;4.37;3.00;;;;;;;16.46;67.25;101315.63;5960622;29;20263;-52
2021/08/03 03:56:17;;;;;;;3.13;2.40;;;;;;;16.61;67.29;101309.97;5986584;29;20239;-48
2021/08/03 03:59:45;;;;;;;4.97;2.60;;;;;;;16.44;68.10;101309.53;5976544;29;20453;-53
2021/08/03 04:03:09;;;;;;;3.13;2.83;;;;;;;16.74;66.79;101311.38;5991604;29;20350;-51
2021/08/03 04:06:32;;;;;;;3.57;2.90;;;;;;;16.88;66.57;101310.16;5984424;29;20247;-49
2021/08/03 04:10:02;;;;;;;6.47;3.80;;;;;;;16.96;66.24;101317.84;5977298;29;20556;-53
2021/08/03 04:13:24;;;;;;;4.43;3.20;;;;;;;17.22;65.53;101325.03;5987895;29;20243;-46
2021/08/03 04:16:45;;;;;;;6.23;4.63;;;;;;;17.28;65.78;101319.59;5975561;29;20332;-49
2021/08/03 04:20:09;;;;;;;4.70;3.20;;;;;;;16.91;67.04;101323.25;5979451;29;20531;-51
2021/08/03 04:23:30;;;;;;;4.43;3.70;;;;;;;17.00;67.23;101322.13;5970523;29;20231;-51
2021/08/03 04:26:51;;;;;;;4.33;2.87;;;;;;;16.92;67.07;101332.84;5969835;29;20614;-53
2021/08/03 04:30:15;;;;;;;2.87;2.63;;;;;;;16.76;67.35;101342.03;5970872;29;20244;-53
2021/08/03 04:33:37;;;;;;;3.57;2.43;;;;;;;17.01;66.59;101348.41;5966638;29;20603;-52
2021/08/03 04:37:00;;;;;;;2.50;2.30;;;;;;;17.08;66.37;101346.47;5971028;29;20247;-53
2021/08/03 04:40:22;;;;;;;2.60;2.40;;;;;;;17.12;65.80;101343.69;5965353;29;20232;-50
2021/08/03 04:43:43;;;;;;;3.73;2.70;;;;;;;17.10;66.13;101345.53;5968362;29;20240;-51
2021/08/03 04:47:05;;;;;;;1.93;1.73;;;;;;;16.80;66.28;101347.16;5967972;29;20333;-51
2021/08/03 04:50:28;;;;;;;4.87;2.03;;;;;;;17.02;66.24;101349.25;5967441;29;20236;-54
2021/08/03 04:53:50;;;;;;;2.73;2.03;;;;;;;17.17;65.19;101354.09;5967280;29;20228;-47
2021/08/03 04:57:11;;;;;;;5.30;2.37;;;;;;;15.74;70.55;101354.97;5976265;29;20622;-52
2021/08/03 05:00:32;;;;;;;2.07;1.30;;;;;;;16.50;68.70;101343.59;5970418;29;20350;-50
2021/08/03 05:03:53;;;;;;;2.67;2.00;;;;;;;16.59;68.79;101347.72;5975618;29;20298;-51
2021/08/03 05:07:14;;;;;;;1.60;1.50;;;;;;;16.45;68.33;101348.09;5979245;29;20381;-48
2021/08/03 05:10:36;;;;;;;2.37;1.83;;;;;;;16.27;69.40;101352.91;5972141;29;20232;-54
2021/08/03 05:13:57;;;;;;;2.70;1.50;;;;;;;16.58;66.70;101341.63;5969901;29;20526;-47
2021/08/03 05:17:18;;;;;;;3.03;1.87;;;;;;;16.97;64.94;101346.75;5972527;29;20232;-49
2021/08/03 05:20:38;;;;;;;1.70;1.50;;;;;;;16.94;64.31;101344.19;5968081;29;20244;-55
2021/08/03 05:23:59;;;;;;;2.57;1.40;;;;;;;16.88;65.07;101339.97;5975173;29;21658;-49
2021/08/03 05:27:22;;;;;;;1.60;1.40;;;;;;;17.09;63.98;101330.63;5968823;29;20224;-52
2021/08/03 05:30:44;;;;;;;1.57;1.47;;;;;;;17.25;63.83;101336.34;5973172;29;20232;-53
2021/08/03 05:34:05;;;;;;;1.57;1.43;;;;;;;17.13;64.63;101345.41;5965013;29;20235;-54
2021/08/03 05:37:26;;;;;;;1.53;1.00;;;;;;;17.51;63.11;101346.09;5966672;29;20243;-49
2021/08/03 05:40:47;;;;;;;2.30;2.10;;;;;;;17.53;63.16;101348.69;5971155;29;20240;-53
2021/08/03 05:44:09;;;;;;;2.50;2.20;;;;;;;17.51;63.07;101351.34;5968780;29;20247;-50
2021/08/03 05:47:31;;;;;;;1.80;1.70;;;;;;;17.43;63.49;101339.34;5972793;29;20236;-51
2021/08/03 05:50:51;;;;;;;2.20;1.20;;;;;;;17.21;64.17;101341.72;5974257;29;20228;-52
2021/08/03 05:54:12;;;;;;;3.70;2.40;;;;;;;16.89;65.70;101340.84;5971552;29;20248;-53
2021/08/03 05:57:33;;;;;;;2.37;1.87;;;;;;;17.11;65.52;101336.69;5972937;29;20240;-45
2021/08/03 06:00:55;;;;;;;4.60;1.80;;;;;;;16.83;66.22;101341.03;5977467;29;20614;-54
2021/08/03 06:04:16;;;;;;;2.13;1.60;;;;;;;16.36;68.18;101336.03;5974689;29;20248;-51
2021/08/03 06:07:41;;;;;;;1.60;1.50;;;;;;;16.25;67.91;101344.19;5969167;29;20244;-49
2021/08/03 06:11:04;;;;;;;1.53;1.40;;;;;;;16.42;67.24;101341.16;5977421;29;20330;-49
2021/08/03 06:14:35;;;;;;;2.23;1.63;;;;;;;16.62;67.11;101342.41;5976462;29;20228;-47
2021/08/03 06:18:04;;;;;;;1.93;1.83;;;;;;;16.80;65.55;101341.06;5975784;29;20251;-46
2021/08/03 06:21:25;;;;;;;1.80;1.63;;;;;;;16.74;66.25;101342.06;5975105;29;20236;-49
2021/08/03 06:24:48;;;;;;;2.30;2.10;;;;;;;17.30;64.69;101342.31;5977358;29;20240;-51
2021/08/03 06:28:09;;;;;;;2.33;2.00;;;;;;;17.27;64.68;101338.91;5974809;29;20502;-48
2021/08/03 06:31:30;;;;;;;2.50;2.10;;;;;;;17.82;63.24;101344.31;5974116;29;20240;-50
2021/08/03 06:34:53;;;;;;;2.40;2.17;;;;;;;18.05;62.09;101341.00;5964120;29;20236;-54
2021/08/03 06:38:14;;;;;;;3.00;2.70;;;;;;;18.33;61.53;101350.63;5964070;29;20858;-48
2021/08/03 06:41:40;;;;;;;3.43;2.00;;;;;;;18.57;60.80;101339.28;5968632;29;20232;-53
2021/08/03 06:45:04;;;;;;;4.40;2.27;;;;;;;18.70;60.02;101340.53;5966852;29;20869;-51
2021/08/03 06:48:30;;;;;;;2.67;1.95;;;;;;;18.79;58.91;101349.09;5969572;29;20515;-47
2021/08/03 06:51:57;;;;;;;2.47;1.57;;;;;;;18.16;59.73;101348.53;5971244;29;20240;-51
2021/08/03 06:55:21;;;;;;;2.20;1.80;;;;;;;18.27;59.55;101351.69;5966582;29;21397;-51
2021/08/03 06:58:49;;;;;;;3.83;2.17;;;;;;;17.74;59.96;101349.81;5966570;29;20335;-52
2021/08/03 07:02:11;;;;;;;2.80;2.25;;;;;;;17.91;61.30;101349.31;5970790;29;20236;-50
2021/08/03 07:05:34;;;;;;;3.80;2.35;;;;;;;18.37;60.18;101357.53;5967515;29;20231;-51
2021/08/03 07:08:57;;;;;;;3.72;2.25;;;;;;;17.95;62.40;101360.63;5972685;29;20267;-53
2021/08/03 07:12:18;;;;;;;6.05;2.22;;;;;;;18.49;60.89;101351.84;5973582;29;20280;-52
2021/08/03 07:15:40;;;;;;;5.40;3.15;;;;;;;18.63;60.55;101359.28;5991030;29;20236;-53
2021/08/03 07:19:02;;;;;;;4.60;2.77;;;;;;;17.81;61.20;101363.66;5973398;29;20235;-52
2021/08/03 07:22:25;;;;;;;5.90;3.20;;;;;;;18.44;59.39;101365.19;5961775;29;20604;-49
2021/08/03 07:25:48;;;;;;;4.30;3.15;;;;;;;18.15;62.54;101360.88;5974621;29;20248;-50
2021/08/03 07:29:09;;;;;;;3.30;2.55;;;;;;;19.00;60.75;101353.63;5971777;29;20232;-50
2021/08/03 07:32:34;;;;;;;3.67;3.15;;;;;;;19.36;57.80;101355.81;5972449;29;20236;-50
2021/08/03 07:35:55;;;;;;;3.05;2.10;;;;;;;18.41;59.18;101369.69;5971487;29;20240;-50
2021/08/03 07:39:16;;;;;;;3.83;3.05;;;;;;;18.04;60.02;101366.47;5969639;29;20239;-49
2021/08/03 07:42:38;;;;;;;5.10;2.90;;;;;;;17.46;60.90;101370.81;5979178;29;20573;-50
2021/08/03 07:45:59;;;;;;;3.35;2.63;;;;;;;18.73;57.71;101365.97;5974801;29;20247;-47
2021/08/03 07:49:20;;;;;;;3.40;2.50;;;;;;;18.98;56.51;101370.41;5980469;29;20622;-53
2021/08/03 07:52:41;;;;;;;2.95;1.80;;;;;;;19.25;56.64;101368.56;5968562;29;20323;-51
2021/08/03 07:56:02;;;;;;;2.35;2.10;;;;;;;19.93;54.45;101360.75;5967487;29;20239;-49
2021/08/03 07:59:24;;;;;;;3.33;2.70;;;;;;;19.39;54.75;101361.00;5977573;29;20263;-53
2021/08/03 08:02:45;;;;;;;3.45;3.15;;;;;;;20.06;53.92;101356.69;5967080;29;20240;-50
2021/08/03 08:06:07;;;;;;;3.45;2.78;;;;;;;18.69;57.66;101359.94;5969231;29;20232;-49
2021/08/03 08:09:28;;;;;;;2.53;2.33;;;;;;;18.99;56.67;101356.31;5973173;29;20598;-48
2021/08/03 08:12:49;;;;;;;4.70;2.78;;;;;;;18.88;56.71;101349.66;5969487;29;20267;-52
2021/08/03 08:16:11;;;;;;;6.05;3.20;;;;;;;20.36;53.31;101345.81;5969622;29;20236;-50
2021/08/03 08:19:32;;;;;;;4.43;2.50;;;;;;;20.57;52.39;101346.66;5978554;29;20239;-49
2021/08/03 08:22:53;;;;;;;2.40;2.13;;;;;;;19.85;53.38;101347.84;5967354;29;20244;-52
2021/08/03 08:26:14;;;;;;;2.28;2.03;;;;;;;19.39;54.42;101334.59;5972567;29;20768;-52
2021/08/03 08:29:35;;;;;;;2.22;2.03;;;;;;;20.00;52.71;101341.09;5969942;29;20322;-52
2021/08/03 08:32:57;;;;;;;3.95;1.98;;;;;;;20.63;50.57;101336.72;5970318;29;20235;-49
2021/08/03 08:36:18;;;;;;;4.53;2.10;;;;;;;21.21;48.65;101337.75;5968926;29;20315;-49
2021/08/03 08:39:39;;;;;;;2.20;1.83;;;;;;;19.30;51.66;101337.56;5964663;29;20268;-49
2021/08/03 08:43:00;;;;;;;1.83;1.55;;;;;;;20.49;48.91;101341.72;5976241;29;20330;-50
2021/08/03 08:46:21;;;;;;;3.42;1.98;;;;;;;20.08;49.59;101335.50;5966517;29;20514;-50
2021/08/03 08:49:44;;;;;;;2.40;1.25;;;;;;;19.75;48.43;101346.47;5970191;29;20231;-50
2021/08/03 08:53:05;;;;;;;2.75;1.20;;;;;;;20.53;47.73;101335.38;5975356;29;20870;-54
2021/08/03 08:56:27;;;;;;;4.30;1.27;;;;;;;21.39;45.29;101336.03;5962587;29;20610;-54
2021/08/03 08:59:48;;;;;;;3.53;1.40;;;;;;;20.83;46.42;101333.22;5973405;29;20243;-50
2021/08/03 09:03:09;;;;;;;3.65;1.75;;;;;;;21.22;45.49;101331.50;5979039;29;20236;-52
2021/08/03 09:06:31;;;;;;;2.10;1.50;;;;;;;21.00;44.82;101331.63;5987594;29;20239;-51
2021/08/03 09:09:52;;;;;;;2.50;1.10;;;;;;;21.24;44.39;101327.84;5979225;29;20610;-51
2021/08/03 09:13:15;;;;;;;5.25;1.17;;;;;;;21.45;44.13;101325.19;5970317;29;20602;-48
2021/08/03 09:16:45;;;;;;;2.75;1.25;;;;;;;21.13;44.07;101316.03;5975069;29;20581;-51
2021/08/03 09:20:14;;;;;;;1.92;1.38;;;;;;;20.62;46.01;101319.13;5973078;29;20232;-50
2021/08/03 09:23:44;;;;;;;2.08;0.85;;;;;;;20.41;45.52;101312.94;5971931;29;20235;-55
2021/08/03 09:27:06;;;;;;;2.05;1.27;;;;;;;21.87;43.52;101312.59;5974212;29;20239;-52
2021/08/03 09:30:30;;;;;;;0.85;0.73;;;;;;;23.17;41.41;101310.44;5977750;29;20503;-49
2021/08/03 09:33:51;;;;;;;3.35;1.33;;;;;;;21.94;42.15;101312.22;5970562;29;20232;-49
2021/08/03 09:37:12;;;;;;;1.35;0.95;;;;;;;23.10;40.16;101314.34;5980923;29;20236;-49
2021/08/03 09:40:35;;;;;;;1.00;1.00;;;;;;;21.99;40.84;101312.00;5969424;29;20767;-51
2021/08/03 09:43:56;;;;;;;0.75;0.75;;;;;;;22.38;41.61;101306.53;5961021;29;20251;-52
2021/08/03 09:47:17;;;;;;;1.48;0.90;;;;;;;22.69;40.18;101314.72;5979063;29;20235;-53
2021/08/03 09:51:02;;;;;;;2.40;0.82;;;;;;;22.90;39.72;101300.31;5973497;29;20239;-50
2021/08/03 09:54:23;;;;;;;1.20;0.90;;;;;;;23.17;40.37;101313.94;5975277;29;20585;-54
2021/08/03 09:57:47;;;;;;;1.45;0.90;;;;;;;23.65;40.10;101299.81;5961672;29;20232;-52
2021/08/03 10:01:25;;;;;;;1.00;0.82;;;;;;;22.34;41.05;101293.50;5959077;29;20674;-61
2021/08/03 10:04:46;;;;;;;1.30;0.95;;;;;;;22.45;41.17;101296.47;5970135;29;20638;-61
2021/08/03 10:08:08;;;;;;;1.65;1.02;;;;;;;22.26;41.44;101293.06;5971897;29;20228;-58
2021/08/03 10:11:28;;;;;;;2.15;0.73;;;;;;;23.33;38.88;101300.69;5980179;29;20331;-60
2021/08/03 10:14:51;;;;;;;2.95;1.00;;;;;;;23.27;38.52;101294.84;5964823;29;20601;-59
2021/08/03 10:18:12;;;;;;;0.85;0.73;;;;;;;23.72;37.39;101296.72;5968681;29;20263;-60
2021/08/03 10:21:36;;;;;;;2.38;1.55;;;;;;;23.42;38.23;101296.66;5979891;29;20533;-60
2021/08/03 10:25:01;;;;;;;1.08;0.98;;;;;;;21.95;41.44;101300.69;5974934;29;20330;-61
2021/08/03 10:28:25;;;;;;;0.88;0.75;;;;;;;;;;5980137;29;20236;-60
2021/08/03 10:31:48;;;;;;;0.85;0.85;;;;;;;22.35;41.94;101298.75;5971005;29;20254;-60
2021/08/03 10:35:16;;;;;;;0.93;0.80;;;;;;;22.88;41.52;101285.41;5970505;29;20240;-60
2021/08/03 10:38:37;;;;;;;1.23;0.95;;;;;;;23.48;39.33;101285.69;5980177;29;20265;-59
2021/08/03 10:42:12;;;;;;;2.60;1.15;;;;;;;24.16;38.61;101274.72;5987140;29;20239;-57
2021/08/03 10:45:33;;;;;;;2.45;1.27;;;;;;;24.60;37.68;101281.00;5985876;29;20258;-60
2021/08/03 10:48:55;;;;;;;0.77;0.70;;;;;;;24.54;38.33;101279.59;5974375;29;20243;-51
2021/08/03 10:52:53;;;;;;;1.33;1.02;;;;;;;25.00;37.93;101280.38;5979330;29;20331;-53
2021/08/03 10:56:13;;;;;;;0.80;0.60;;;;;;;24.52;37.19;101270.84;5978207;29;20251;-52
2021/08/03 10:59:35;;;;;;;1.73;0.82;;;;;;;24.55;36.85;101270.66;5972567;29;20606;-51
2021/08/03 11:02:55;;;;;;;1.58;0.93;;;;;;;24.42;37.37;101266.13;5978208;29;20259;-54
2021/08/03 11:06:39;;;;;;;1.48;0.82;;;;;;;23.86;37.75;101272.03;5985209;29;20502;-52
2021/08/03 11:10:04;;;;;;;0.52;0.52;;;;;;;24.05;37.67;101263.00;5981240;29;20769;-52
2021/08/03 11:13:37;;;;;;;2.72;1.00;;;;;;;23.87;38.00;101267.59;5976992;29;20228;-55
2021/08/03 11:16:58;;;;;;;1.02;0.93;;;;;;;23.92;38.48;101270.81;5979680;29;20264;-50
2021/08/03 11:21:11;;;;;;;1.52;1.02;;;;;;;23.97;38.89;101263.44;5975224;29;20236;-48
2021/08/03 11:24:44;;;;;;;1.38;1.10;;;;;;;23.22;39.57;101263.22;5975586;29;20243;-51
2021/08/03 11:28:08;;;;;;;1.30;1.20;;;;;;;24.05;38.73;101255.88;5984005;29;20552;-51
2021/08/03 11:31:53;;;;;;;0.90;0.80;;;;;;;23.90;37.60;101262.09;5974453;29;20264;-50
2021/08/03 11:35:25;;;;;;;1.02;0.82;;;;;;;23.96;36.80;101256.41;5961917;29;20275;-52
2021/08/03 11:38:46;;;;;;;1.85;0.77;;;;;;;24.01;37.70;101253.50;5966951;29;20554;-50
2021/08/03 11:42:10;;;;;;;1.45;0.90;;;;;;;23.58;38.97;101262.09;5961471;29;20244;-49
2021/08/03 11:45:33;;;;;;;1.02;0.80;;;;;;;23.22;38.77;101255.25;5966560;29;20236;-51
2021/08/03 11:49:04;;;;;;;2.05;0.95;;;;;;;23.72;39.06;101258.66;5974526;29;20235;-54
2021/08/03 11:52:25;;;;;;;1.98;1.02;;;;;;;23.61;40.43;101261.06;5976922;29;20243;-49
2021/08/03 11:55:47;;;;;;;3.53;1.30;;;;;;;23.52;40.83;101262.47;5961782;29;20601;-50
2021/08/03 11:59:11;;;;;;;1.65;1.55;;;;;;;23.54;40.08;101261.41;5955557;29;20267;-52
2021/08/03 12:02:32;;;;;;;3.05;1.15;;;;;;;23.54;40.84;101260.56;5965885;29;20753;-50
2021/08/03 12:05:53;;;;;;;2.33;1.60;;;;;;;23.32;42.25;101251.16;5966425;29;21620;-50
2021/08/03 12:09:14;;;;;;;6.60;1.52;;;;;;;23.38;41.75;101256.13;5972960;29;20631;-51
2021/08/03 12:12:35;;;;;;;1.95;0.90;;;;;;;22.70;43.75;101252.72;5972723;29;20523;-54
2021/08/03 12:16:00;;;;;;;1.27;1.17;;;;;;;22.74;44.50;101264.88;5966723;29;20240;-47
2021/08/03 12:19:28;;;;;;;1.35;0.90;;;;;;;23.00;43.97;101263.50;5969003;29;20497;-49
2021/08/03 12:22:49;;;;;;;2.30;1.10;;;;;;;23.24;43.52;101271.09;5973421;29;20251;-52
2021/08/03 12:26:22;;;;;;;1.92;1.00;;;;;;;23.06;44.28;101262.34;5967176;29;20523;-52
2021/08/03 12:29:43;;;;;;;2.00;1.25;;;;;;;22.86;44.09;101261.59;5960699;29;20235;-50
2021/08/03 12:33:06;;;;;;;1.15;0.95;;;;;;;22.80;44.89;101264.59;5962722;29;20267;-52
2021/08/03 12:36:40;;;;;;;2.20;1.30;;;;;;;22.85;44.49;101270.47;5969608;29;20251;-51
2021/08/03 12:40:01;;;;;;;0.90;0.90;;;;;;;23.07;43.91;101264.03;5970775;29;20243;-49
2021/08/03 12:43:37;;;;;;;3.88;1.63;;;;;;;23.08;44.09;101253.34;5964589;29;20235;-49
2021/08/03 12:47:11;;;;;;;3.92;2.22;;;;;;;22.86;43.44;101256.28;5958657;29;20658;-50
2021/08/03 12:50:47;;;;;;;1.70;1.00;;;;;;;23.17;43.39;101258.16;5971441;29;20269;-54
2021/08/03 12:54:12;;;;;;;3.97;1.20;;;;;;;22.85;43.75;101253.72;5969143;29;20239;-51
2021/08/03 12:57:47;;;;;;;1.30;0.80;;;;;;;23.07;43.28;101256.06;5960976;29;20315;-52
2021/08/03 13:01:10;;;;;;;2.78;0.80;;;;;;;23.25;43.20;101260.41;5967592;29;20244;-52
2021/08/03 13:04:31;;;;;;;1.42;1.33;;;;;;;22.94;43.95;101250.56;5979345;29;20350;-50
2021/08/03 13:07:53;;;;;;;1.27;1.05;;;;;;;23.18;43.07;101259.00;5958906;29;20247;-52
2021/08/03 13:11:16;;;;;;;1.83;1.55;;;;;;;23.27;43.21;101261.16;5955373;29;20243;-51
2021/08/03 13:14:37;;;;;;;1.65;1.13;;;;;;;23.22;42.63;101259.69;5968145;29;20248;-52
2021/08/03 13:17:58;;;;;;;2.83;1.00;;;;;;;23.42;42.78;101250.59;5968760;29;20914;-53
2021/08/03 13:21:19;;;;;;;4.18;1.70;;;;;;;23.89;42.01;101249.75;5966338;29;20243;-53
2021/08/03 13:24:41;;;;;;;2.70;1.23;;;;;;;25.58;38.30;101257.16;5961205;29;20342;-52
2021/08/03 13:28:02;;;;;;;4.13;1.45;;;;;;;25.06;40.50;101264.00;5954766;29;20244;-49
2021/08/03 13:31:23;;;;;;;4.85;2.03;;;;;;;25.51;39.89;101262.03;5948940;29;20244;-49
2021/08/03 13:34:44;;;;;;;1.48;1.15;;;;;;;25.39;39.91;101253.03;5961099;29;20240;-49
2021/08/03 13:38:06;;;;;;;2.55;1.58;;;;;;;24.89;40.13;101252.59;5952986;29;20636;-48
2021/08/03 13:41:29;;;;;;;1.67;1.55;;;;;;;23.69;42.52;101249.06;5955930;29;20241;-50
2021/08/03 13:44:50;;;;;;;1.40;1.23;;;;;;;23.55;43.17;101249.84;5967590;29;20240;-51
2021/08/03 13:48:11;;;;;;;1.00;0.90;;;;;;;23.15;43.39;101248.56;5975632;29;20279;-53
2021/08/03 13:51:32;;;;;;;2.03;1.40;;;;;;;23.11;43.38;101239.03;5970562;29;20560;-51
2021/08/03 13:54:53;;;;;;;1.83;1.17;;;;;;;22.88;44.17;101234.97;5989703;29;20509;-53
2021/08/03 13:58:15;;;;;;;1.77;1.25;;;;;;;22.68;44.71;101241.31;5987615;29;21289;-54
2021/08/03 14:01:36;;;;;;;1.85;1.23;;;;;;;22.71;44.83;101239.38;5969422;29;20339;-49
2021/08/03 14:04:57;;;;;;;1.15;1.05;;;;;;;22.71;44.54;101228.75;5970666;29;20335;-51
2021/08/03 14:08:19;;;;;;;1.20;1.10;;;;;;;22.97;44.77;101240.63;5962910;29;20237;-53
2021/08/03 14:11:40;;;;;;;1.70;1.23;;;;;;;22.95;45.29;101234.56;5976794;29;20232;-47
2021/08/03 14:15:02;;;;;;;1.35;1.25;;;;;;;23.26;44.15;101237.31;5980603;29;20248;-51
2021/08/03 14:18:25;;;;;;;1.38;1.27;;;;;;;23.82;44.04;101230.63;5968422;29;20327;-50
2021/08/03 14:21:47;;;;;;;2.50;1.60;;;;;;;24.73;42.09;101231.38;5965862;29;20239;-51
2021/08/03 14:25:08;;;;;;;1.92;1.80;;;;;;;24.35;42.78;101223.94;5978322;29;20331;-51
2021/08/03 14:28:29;;;;;;;1.40;1.30;;;;;;;23.88;43.37;101221.41;5968884;29;20564;-50
2021/08/03 14:31:52;;;;;;;1.45;1.35;;;;;;;23.80;42.33;101223.69;5967079;29;20544;-51
2021/08/03 14:35:13;;;;;;;1.30;1.20;;;;;;;23.41;40.69;101217.88;5966319;29;20231;-49
2021/08/03 14:38:34;;;;;;;1.60;1.08;;;;;;;23.46;41.55;101222.91;5966839;29;20562;-52
2021/08/03 14:41:55;;;;;;;3.75;1.85;;;;;;;23.59;41.22;101223.94;5981612;29;20605;-53
2021/08/03 14:45:16;;;;;;;2.95;1.60;;;;;;;24.07;39.99;101216.72;5971763;29;20241;-52
2021/08/03 14:48:38;;;;;;;1.00;0.70;;;;;;;23.76;39.52;101210.53;5966483;29;20448;-52
2021/08/03 14:51:59;;;;;;;1.30;0.90;;;;;;;23.66;39.82;101212.00;5960202;29;20650;-52
2021/08/03 14:55:20;;;;;;;1.05;0.98;;;;;;;23.71;38.82;101207.28;5977785;29;20228;-51
2021/08/03 14:58:41;;;;;;;2.63;0.93;;;;;;;23.59;39.54;101215.94;5965848;29;20228;-55
2021/08/03 15:02:01;;;;;;;1.67;0.88;;;;;;;23.55;39.46;101203.78;5973709;29;20243;-54
2021/08/03 15:05:24;;;;;;;2.83;1.35;;;;;;;23.38;39.93;101205.63;5978196;29;20248;-53
2021/08/03 15:08:45;;;;;;;5.30;4.80;;;;;;;23.77;40.18;101195.44;5964113;29;20241;-52
2021/08/03 15:12:06;;;;;;;1.85;1.75;;;;;;;23.62;39.42;101199.84;5964488;29;20244;-54
2021/08/03 15:15:27;;;;;;;3.72;1.67;;;;;;;23.67;39.53;101195.13;5970099;29;20252;-53
2021/08/03 15:18:48;;;;;;;2.97;1.08;;;;;;;23.56;39.59;101201.06;5971979;29;20243;-48
2021/08/03 15:22:11;;;;;;;1.98;1.27;;;;;;;23.14;40.31;101194.56;5972821;29;20251;-50
2021/08/03 15:25:32;;;;;;;1.05;0.98;;;;;;;23.59;39.85;101194.69;5960955;29;20599;-53
2021/08/03 15:28:53;;;;;;;3.33;2.00;;;;;;;23.94;39.43;101189.13;5963867;29;20236;-51
2021/08/03 15:32:14;;;;;;;4.10;1.77;;;;;;;24.24;39.00;101196.25;5982004;29;20508;-49
2021/08/03 15:35:35;;;;;;;2.13;1.65;;;;;;;24.85;38.17;101192.47;5965495;29;21099;-49
2021/08/03 15:38:57;;;;;;;1.58;1.00;;;;;;;25.24;37.01;101187.38;5968913;29;20244;-53
2021/08/03 15:42:18;;;;;;;1.13;1.02;;;;;;;26.04;36.25;101182.97;5971455;29;20274;-50
2021/08/03 15:45:39;;;;;;;1.33;1.25;;;;;;;26.08;35.42;101179.13;5973821;29;20251;-49
2021/08/03 15:49:00;;;;;;;1.98;1.15;;;;;;;26.53;35.33;101184.88;5972281;29;20256;-53